sensor_id;sensor_type;location;lat;lon;timestamp;P1;durP1;ratioP1;P2;durP2;ratioP2
9522;SDS011;63165;43.016;25.784;2023-07-13T00:02:08;31.20;;;12.90;;
9522;SDS011;63165;43.016;25.784;2023-07-13T00:04:37;30.73;;;12.68;;
9522;SDS011;63165;43.016;25.784;2023-07-13T00:07:04;28.25;;;12.95;;
9522;SDS011;63165;43.016;25.784;2023-07-13T00:09:32;27.23;;;12.80;;
9522;SDS011;63165;43.016;25.784;2023-07-13T00:12:01;29.27;;;12.07;;
9522;SDS011;63165;43.016;25.784;2023-07-13T00:14:30;26.73;;;11.70;;
9522;SDS011;63165;43.016;25.784;2023-07-13T00:16:57;30.33;;;12.93;;
9522;SDS011;63165;43.016;25.784;2023-07-13T00:19:25;29.20;;;12.43;;
9522;SDS011;63165;43.016;25.784;2023-07-13T00:21:53;31.92;;;12.80;;
9522;SDS011;63165;43.016;25.784;2023-07-13T00:24:21;28.05;;;12.77;;
9522;SDS011;63165;43.016;25.784;2023-07-13T00:26:49;28.92;;;12.55;;
9522;SDS011;63165;43.016;25.784;2023-07-13T00:29:17;26.88;;;12.55;;
9522;SDS011;63165;43.016;25.784;2023-07-13T00:31:47;28.63;;;12.15;;
9522;SDS011;63165;43.016;25.784;2023-07-13T00:34:15;31.67;;;12.60;;
9522;SDS011;63165;43.016;25.784;2023-07-13T00:36:42;30.88;;;12.40;;
9522;SDS011;63165;43.016;25.784;2023-07-13T00:39:09;29.45;;;12.20;;
9522;SDS011;63165;43.016;25.784;2023-07-13T00:41:37;28.48;;;12.23;;
9522;SDS011;63165;43.016;25.784;2023-07-13T00:44:04;29.48;;;13.15;;
9522;SDS011;63165;43.016;25.784;2023-07-13T00:46:32;34.75;;;12.93;;
9522;SDS011;63165;43.016;25.784;2023-07-13T00:49:02;36.80;;;13.40;;
9522;SDS011;63165;43.016;25.784;2023-07-13T00:51:36;29.08;;;12.23;;
9522;SDS011;63165;43.016;25.784;2023-07-13T00:54:06;37.55;;;13.50;;
9522;SDS011;63165;43.016;25.784;2023-07-13T00:56:38;27.55;;;11.75;;
9522;SDS011;63165;43.016;25.784;2023-07-13T00:59:07;29.63;;;12.52;;
9522;SDS011;63165;43.016;25.784;2023-07-13T01:01:36;29.90;;;12.55;;
9522;SDS011;63165;43.016;25.784;2023-07-13T01:04:06;30.00;;;12.82;;
9522;SDS011;63165;43.016;25.784;2023-07-13T01:06:34;26.58;;;12.05;;
9522;SDS011;63165;43.016;25.784;2023-07-13T01:09:02;26.35;;;11.82;;
9522;SDS011;63165;43.016;25.784;2023-07-13T01:11:31;27.02;;;12.48;;
9522;SDS011;63165;43.016;25.784;2023-07-13T01:13:58;31.00;;;12.95;;
9522;SDS011;63165;43.016;25.784;2023-07-13T01:16:27;32.78;;;12.70;;
9522;SDS011;63165;43.016;25.784;2023-07-13T01:18:57;30.58;;;12.18;;
9522;SDS011;63165;43.016;25.784;2023-07-13T01:21:28;24.92;;;11.52;;
9522;SDS011;63165;43.016;25.784;2023-07-13T01:23:58;28.27;;;11.73;;
9522;SDS011;63165;43.016;25.784;2023-07-13T01:26:25;29.50;;;12.20;;
9522;SDS011;63165;43.016;25.784;2023-07-13T01:28:53;27.30;;;12.02;;
9522;SDS011;63165;43.016;25.784;2023-07-13T01:31:22;24.80;;;12.35;;
9522;SDS011;63165;43.016;25.784;2023-07-13T01:33:50;31.98;;;11.95;;
9522;SDS011;63165;43.016;25.784;2023-07-13T01:36:18;30.25;;;12.77;;
9522;SDS011;63165;43.016;25.784;2023-07-13T01:38:48;25.98;;;11.77;;
9522;SDS011;63165;43.016;25.784;2023-07-13T01:41:15;30.40;;;13.32;;
9522;SDS011;63165;43.016;25.784;2023-07-13T01:43:42;26.38;;;11.68;;
9522;SDS011;63165;43.016;25.784;2023-07-13T01:46:10;31.55;;;12.70;;
9522;SDS011;63165;43.016;25.784;2023-07-13T01:48:37;32.05;;;13.25;;
9522;SDS011;63165;43.016;25.784;2023-07-13T01:51:05;25.92;;;11.85;;
9522;SDS011;63165;43.016;25.784;2023-07-13T01:53:32;27.95;;;12.05;;
9522;SDS011;63165;43.016;25.784;2023-07-13T01:56:01;30.85;;;12.30;;
9522;SDS011;63165;43.016;25.784;2023-07-13T01:58:29;30.52;;;12.05;;
9522;SDS011;63165;43.016;25.784;2023-07-13T02:00:57;28.95;;;11.25;;
9522;SDS011;63165;43.016;25.784;2023-07-13T02:03:24;32.47;;;12.40;;
9522;SDS011;63165;43.016;25.784;2023-07-13T02:05:52;27.00;;;12.30;;
9522;SDS011;63165;43.016;25.784;2023-07-13T02:08:19;32.70;;;11.70;;
9522;SDS011;63165;43.016;25.784;2023-07-13T02:10:46;31.55;;;11.77;;
9522;SDS011;63165;43.016;25.784;2023-07-13T02:13:15;30.00;;;12.32;;
9522;SDS011;63165;43.016;25.784;2023-07-13T02:15:43;28.92;;;11.98;;
9522;SDS011;63165;43.016;25.784;2023-07-13T02:18:10;27.42;;;11.82;;
9522;SDS011;63165;43.016;25.784;2023-07-13T02:20:42;27.02;;;11.80;;
9522;SDS011;63165;43.016;25.784;2023-07-13T02:23:09;32.45;;;12.38;;
9522;SDS011;63165;43.016;25.784;2023-07-13T02:25:38;31.33;;;12.65;;
9522;SDS011;63165;43.016;25.784;2023-07-13T02:28:05;28.67;;;12.02;;
9522;SDS011;63165;43.016;25.784;2023-07-13T02:30:34;28.67;;;12.15;;
9522;SDS011;63165;43.016;25.784;2023-07-13T02:33:02;25.00;;;11.07;;
9522;SDS011;63165;43.016;25.784;2023-07-13T02:35:29;32.60;;;11.77;;
9522;SDS011;63165;43.016;25.784;2023-07-13T02:37:57;25.35;;;11.43;;
9522;SDS011;63165;43.016;25.784;2023-07-13T02:40:25;26.42;;;11.60;;
9522;SDS011;63165;43.016;25.784;2023-07-13T02:42:52;32.22;;;12.07;;
9522;SDS011;63165;43.016;25.784;2023-07-13T02:45:20;31.58;;;12.63;;
9522;SDS011;63165;43.016;25.784;2023-07-13T02:47:49;30.63;;;12.13;;
9522;SDS011;63165;43.016;25.784;2023-07-13T02:50:16;36.33;;;12.63;;
9522;SDS011;63165;43.016;25.784;2023-07-13T02:52:44;35.47;;;12.95;;
9522;SDS011;63165;43.016;25.784;2023-07-13T02:55:11;24.30;;;11.05;;
9522;SDS011;63165;43.016;25.784;2023-07-13T02:57:38;29.88;;;12.75;;
9522;SDS011;63165;43.016;25.784;2023-07-13T03:00:06;32.85;;;11.52;;
9522;SDS011;63165;43.016;25.784;2023-07-13T03:02:35;27.17;;;11.38;;
9522;SDS011;63165;43.016;25.784;2023-07-13T03:05:04;34.90;;;11.50;;
9522;SDS011;63165;43.016;25.784;2023-07-13T03:07:32;31.00;;;12.45;;
9522;SDS011;63165;43.016;25.784;2023-07-13T03:09:59;26.50;;;12.07;;
9522;SDS011;63165;43.016;25.784;2023-07-13T03:12:27;29.70;;;12.30;;
9522;SDS011;63165;43.016;25.784;2023-07-13T03:14:54;28.45;;;11.93;;
9522;SDS011;63165;43.016;25.784;2023-07-13T03:17:22;28.95;;;12.52;;
9522;SDS011;63165;43.016;25.784;2023-07-13T03:19:49;35.70;;;12.82;;
9522;SDS011;63165;43.016;25.784;2023-07-13T03:22:18;34.33;;;13.77;;
9522;SDS011;63165;43.016;25.784;2023-07-13T03:24:46;28.88;;;12.82;;
9522;SDS011;63165;43.016;25.784;2023-07-13T03:27:14;31.63;;;13.02;;
9522;SDS011;63165;43.016;25.784;2023-07-13T03:29:42;31.83;;;13.52;;
9522;SDS011;63165;43.016;25.784;2023-07-13T03:32:12;28.15;;;12.75;;
9522;SDS011;63165;43.016;25.784;2023-07-13T03:34:40;36.35;;;13.52;;
9522;SDS011;63165;43.016;25.784;2023-07-13T03:37:07;62.67;;;15.48;;
9522;SDS011;63165;43.016;25.784;2023-07-13T03:39:36;65.03;;;14.23;;
9522;SDS011;63165;43.016;25.784;2023-07-13T03:42:03;39.80;;;13.65;;
9522;SDS011;63165;43.016;25.784;2023-07-13T03:44:31;33.72;;;12.95;;
9522;SDS011;63165;43.016;25.784;2023-07-13T03:46:59;35.10;;;13.32;;
9522;SDS011;63165;43.016;25.784;2023-07-13T03:49:26;32.78;;;12.90;;
9522;SDS011;63165;43.016;25.784;2023-07-13T03:51:53;32.90;;;12.82;;
9522;SDS011;63165;43.016;25.784;2023-07-13T03:54:21;31.48;;;13.15;;
9522;SDS011;63165;43.016;25.784;2023-07-13T03:56:50;25.50;;;12.02;;
9522;SDS011;63165;43.016;25.784;2023-07-13T03:59:17;34.45;;;13.02;;
9522;SDS011;63165;43.016;25.784;2023-07-13T04:01:44;33.10;;;14.07;;
9522;SDS011;63165;43.016;25.784;2023-07-13T04:04:12;33.28;;;13.23;;
9522;SDS011;63165;43.016;25.784;2023-07-13T04:06:41;30.95;;;12.75;;
9522;SDS011;63165;43.016;25.784;2023-07-13T04:09:08;33.08;;;14.00;;
9522;SDS011;63165;43.016;25.784;2023-07-13T04:11:35;35.05;;;14.23;;
9522;SDS011;63165;43.016;25.784;2023-07-13T04:14:04;34.70;;;13.68;;
9522;SDS011;63165;43.016;25.784;2023-07-13T04:16:31;31.15;;;13.65;;
9522;SDS011;63165;43.016;25.784;2023-07-13T04:18:58;39.92;;;13.27;;
9522;SDS011;63165;43.016;25.784;2023-07-13T04:21:26;34.92;;;13.23;;
9522;SDS011;63165;43.016;25.784;2023-07-13T11:24:56;14.00;;;4.15;;
9522;SDS011;63165;43.016;25.784;2023-07-13T11:27:41;9.07;;;3.78;;
9522;SDS011;63165;43.016;25.784;2023-07-13T11:30:59;9.20;;;4.32;;
9522;SDS011;63165;43.016;25.784;2023-07-13T11:34:40;13.25;;;4.40;;
9522;SDS011;63165;43.016;25.784;2023-07-13T11:44:52;10.52;;;3.95;;
9522;SDS011;63165;43.016;25.784;2023-07-13T11:47:22;9.07;;;3.80;;
9522;SDS011;63165;43.016;25.784;2023-07-13T11:52:23;8.90;;;3.80;;
9522;SDS011;63165;43.016;25.784;2023-07-13T11:54:59;10.10;;;3.97;;
9522;SDS011;63165;43.016;25.784;2023-07-13T11:57:38;11.25;;;3.70;;
9522;SDS011;63165;43.016;25.784;2023-07-13T12:00:17;9.40;;;3.45;;
9522;SDS011;63165;43.016;25.784;2023-07-13T12:03:00;9.70;;;4.37;;
9522;SDS011;63165;43.016;25.784;2023-07-13T12:09:47;45.47;;;5.95;;
9522;SDS011;63165;43.016;25.784;2023-07-13T12:12:17;21.10;;;4.10;;
9522;SDS011;63165;43.016;25.784;2023-07-13T12:14:52;20.27;;;4.10;;
9522;SDS011;63165;43.016;25.784;2023-07-13T12:17:56;13.80;;;3.70;;
9522;SDS011;63165;43.016;25.784;2023-07-13T12:20:42;11.43;;;3.88;;
9522;SDS011;63165;43.016;25.784;2023-07-13T12:23:14;9.20;;;3.92;;
9522;SDS011;63165;43.016;25.784;2023-07-13T12:25:50;7.72;;;3.55;;
9522;SDS011;63165;43.016;25.784;2023-07-13T12:28:21;11.07;;;3.90;;
9522;SDS011;63165;43.016;25.784;2023-07-13T12:31:05;8.82;;;3.53;;
9522;SDS011;63165;43.016;25.784;2023-07-13T12:33:47;11.32;;;4.43;;
9522;SDS011;63165;43.016;25.784;2023-07-13T12:36:15;9.43;;;3.70;;
9522;SDS011;63165;43.016;25.784;2023-07-13T12:55:16;13.30;;;4.00;;
9522;SDS011;63165;43.016;25.784;2023-07-13T12:57:47;10.70;;;3.58;;
9522;SDS011;63165;43.016;25.784;2023-07-13T13:00:21;14.48;;;4.32;;
9522;SDS011;63165;43.016;25.784;2023-07-13T13:02:52;10.77;;;3.85;;
9522;SDS011;63165;43.016;25.784;2023-07-13T13:05:21;10.93;;;3.80;;
9522;SDS011;63165;43.016;25.784;2023-07-13T13:07:50;12.65;;;3.63;;
9522;SDS011;63165;43.016;25.784;2023-07-13T13:10:19;10.15;;;3.70;;
9522;SDS011;63165;43.016;25.784;2023-07-13T13:12:48;11.57;;;3.72;;
9522;SDS011;63165;43.016;25.784;2023-07-13T13:15:15;8.80;;;3.47;;
9522;SDS011;63165;43.016;25.784;2023-07-13T13:17:43;12.50;;;3.47;;
9522;SDS011;63165;43.016;25.784;2023-07-13T13:20:14;10.27;;;3.67;;
9522;SDS011;63165;43.016;25.784;2023-07-13T13:22:48;9.93;;;3.70;;
9522;SDS011;63165;43.016;25.784;2023-07-13T13:25:18;10.50;;;3.90;;
9522;SDS011;63165;43.016;25.784;2023-07-13T13:27:48;11.75;;;3.90;;
9522;SDS011;63165;43.016;25.784;2023-07-13T13:30:17;13.38;;;4.00;;
9522;SDS011;63165;43.016;25.784;2023-07-13T13:32:48;10.20;;;3.63;;
9522;SDS011;63165;43.016;25.784;2023-07-13T13:35:21;12.18;;;3.90;;
9522;SDS011;63165;43.016;25.784;2023-07-13T13:37:50;14.57;;;4.00;;
9522;SDS011;63165;43.016;25.784;2023-07-13T13:40:23;10.50;;;3.80;;
9522;SDS011;63165;43.016;25.784;2023-07-13T13:42:57;10.82;;;4.10;;
9522;SDS011;63165;43.016;25.784;2023-07-13T13:45:36;16.48;;;4.28;;
9522;SDS011;63165;43.016;25.784;2023-07-13T13:48:05;12.60;;;3.83;;
9522;SDS011;63165;43.016;25.784;2023-07-13T13:50:35;11.55;;;3.95;;
9522;SDS011;63165;43.016;25.784;2023-07-13T13:53:03;11.25;;;4.13;;
9522;SDS011;63165;43.016;25.784;2023-07-13T13:55:34;9.73;;;4.13;;
9522;SDS011;63165;43.016;25.784;2023-07-13T13:58:01;8.45;;;4.43;;
9522;SDS011;63165;43.016;25.784;2023-07-13T14:00:28;10.15;;;4.07;;
9522;SDS011;63165;43.016;25.784;2023-07-13T14:02:55;8.60;;;4.35;;
9522;SDS011;63165;43.016;25.784;2023-07-13T14:05:24;18.20;;;4.20;;
9522;SDS011;63165;43.016;25.784;2023-07-13T14:08:08;10.68;;;4.00;;
9522;SDS011;63165;43.016;25.784;2023-07-13T14:10:46;11.02;;;4.13;;
9522;SDS011;63165;43.016;25.784;2023-07-13T14:13:18;11.00;;;4.10;;
9522;SDS011;63165;43.016;25.784;2023-07-13T14:15:57;20.98;;;4.72;;
9522;SDS011;63165;43.016;25.784;2023-07-13T14:18:43;13.60;;;4.32;;
9522;SDS011;63165;43.016;25.784;2023-07-13T14:21:11;12.23;;;4.65;;
9522;SDS011;63165;43.016;25.784;2023-07-13T14:23:45;14.20;;;4.47;;
9522;SDS011;63165;43.016;25.784;2023-07-13T14:29:28;12.23;;;4.30;;
9522;SDS011;63165;43.016;25.784;2023-07-13T14:32:11;13.10;;;4.55;;
9522;SDS011;63165;43.016;25.784;2023-07-13T14:34:43;13.95;;;4.47;;
9522;SDS011;63165;43.016;25.784;2023-07-13T14:37:38;12.82;;;4.15;;
9522;SDS011;63165;43.016;25.784;2023-07-13T14:40:19;11.13;;;4.20;;
9522;SDS011;63165;43.016;25.784;2023-07-13T14:42:52;9.73;;;4.30;;
9522;SDS011;63165;43.016;25.784;2023-07-13T14:45:19;15.02;;;3.97;;
9522;SDS011;63165;43.016;25.784;2023-07-13T14:47:47;8.77;;;4.70;;
9522;SDS011;63165;43.016;25.784;2023-07-13T14:50:15;14.20;;;4.60;;
9522;SDS011;63165;43.016;25.784;2023-07-13T14:52:45;11.13;;;4.20;;
9522;SDS011;63165;43.016;25.784;2023-07-13T14:55:13;13.93;;;4.03;;
9522;SDS011;63165;43.016;25.784;2023-07-13T14:57:42;11.30;;;4.30;;
9522;SDS011;63165;43.016;25.784;2023-07-13T15:00:15;8.90;;;4.10;;
9522;SDS011;63165;43.016;25.784;2023-07-13T15:02:44;10.23;;;4.30;;
9522;SDS011;63165;43.016;25.784;2023-07-13T15:05:15;14.52;;;4.47;;
9522;SDS011;63165;43.016;25.784;2023-07-13T15:07:44;8.70;;;4.00;;
9522;SDS011;63165;43.016;25.784;2023-07-13T15:10:12;18.48;;;4.88;;
9522;SDS011;63165;43.016;25.784;2023-07-13T15:12:41;10.75;;;4.35;;
9522;SDS011;63165;43.016;25.784;2023-07-13T15:15:08;15.27;;;4.18;;
9522;SDS011;63165;43.016;25.784;2023-07-13T15:17:38;11.85;;;4.22;;
9522;SDS011;63165;43.016;25.784;2023-07-13T15:20:11;12.95;;;4.63;;
9522;SDS011;63165;43.016;25.784;2023-07-13T15:22:43;14.82;;;4.28;;
9522;SDS011;63165;43.016;25.784;2023-07-13T15:25:14;11.88;;;4.65;;
9522;SDS011;63165;43.016;25.784;2023-07-13T15:27:43;10.77;;;4.20;;
9522;SDS011;63165;43.016;25.784;2023-07-13T15:30:11;13.98;;;4.55;;
9522;SDS011;63165;43.016;25.784;2023-07-13T15:32:41;12.23;;;4.38;;
9522;SDS011;63165;43.016;25.784;2023-07-13T15:35:15;10.77;;;5.10;;
9522;SDS011;63165;43.016;25.784;2023-07-13T15:37:44;18.88;;;4.72;;
9522;SDS011;63165;43.016;25.784;2023-07-13T15:40:12;16.23;;;4.72;;
9522;SDS011;63165;43.016;25.784;2023-07-13T15:42:40;17.17;;;5.10;;
9522;SDS011;63165;43.016;25.784;2023-07-13T15:45:19;10.60;;;4.55;;
9522;SDS011;63165;43.016;25.784;2023-07-13T15:47:49;14.88;;;4.72;;
9522;SDS011;63165;43.016;25.784;2023-07-13T15:50:19;11.45;;;4.75;;
9522;SDS011;63165;43.016;25.784;2023-07-13T15:52:49;10.32;;;4.50;;
9522;SDS011;63165;43.016;25.784;2023-07-13T15:55:19;15.93;;;4.93;;
9522;SDS011;63165;43.016;25.784;2023-07-13T15:57:47;8.65;;;4.45;;
9522;SDS011;63165;43.016;25.784;2023-07-13T16:00:20;11.63;;;5.15;;
9522;SDS011;63165;43.016;25.784;2023-07-13T16:02:50;13.68;;;4.97;;
9522;SDS011;63165;43.016;25.784;2023-07-13T16:05:19;12.52;;;4.78;;
9522;SDS011;63165;43.016;25.784;2023-07-13T16:07:48;14.27;;;5.38;;
9522;SDS011;63165;43.016;25.784;2023-07-13T16:10:19;14.23;;;5.00;;
9522;SDS011;63165;43.016;25.784;2023-07-13T16:12:49;11.88;;;5.05;;
9522;SDS011;63165;43.016;25.784;2023-07-13T16:15:19;14.20;;;5.50;;
9522;SDS011;63165;43.016;25.784;2023-07-13T16:17:47;16.30;;;5.47;;
9522;SDS011;63165;43.016;25.784;2023-07-13T16:20:18;14.95;;;5.60;;
9522;SDS011;63165;43.016;25.784;2023-07-13T16:22:48;12.05;;;5.45;;
9522;SDS011;63165;43.016;25.784;2023-07-13T16:25:18;15.43;;;5.68;;
9522;SDS011;63165;43.016;25.784;2023-07-13T16:27:48;12.98;;;5.72;;
9522;SDS011;63165;43.016;25.784;2023-07-13T16:30:18;50.67;;;7.07;;
9522;SDS011;63165;43.016;25.784;2023-07-13T16:32:48;21.42;;;5.53;;
9522;SDS011;63165;43.016;25.784;2023-07-13T16:35:18;14.98;;;5.75;;
9522;SDS011;63165;43.016;25.784;2023-07-13T16:37:46;13.75;;;5.80;;
9522;SDS011;63165;43.016;25.784;2023-07-13T16:40:20;12.48;;;5.50;;
9522;SDS011;63165;43.016;25.784;2023-07-13T16:42:49;64.10;;;7.95;;
9522;SDS011;63165;43.016;25.784;2023-07-13T16:45:18;22.40;;;5.85;;
9522;SDS011;63165;43.016;25.784;2023-07-13T16:47:49;17.60;;;6.05;;
9522;SDS011;63165;43.016;25.784;2023-07-13T16:50:19;13.50;;;5.15;;
9522;SDS011;63165;43.016;25.784;2023-07-13T16:52:48;20.05;;;5.82;;
9522;SDS011;63165;43.016;25.784;2023-07-13T16:55:17;25.77;;;6.28;;
9522;SDS011;63165;43.016;25.784;2023-07-13T16:57:53;37.75;;;7.65;;
9522;SDS011;63165;43.016;25.784;2023-07-13T17:00:24;34.10;;;6.22;;
9522;SDS011;63165;43.016;25.784;2023-07-13T17:02:54;32.08;;;6.60;;
9522;SDS011;63165;43.016;25.784;2023-07-13T17:05:28;35.67;;;6.70;;
9522;SDS011;63165;43.016;25.784;2023-07-13T17:07:56;17.30;;;6.18;;
9522;SDS011;63165;43.016;25.784;2023-07-13T17:10:25;25.85;;;7.47;;
9522;SDS011;63165;43.016;25.784;2023-07-13T17:12:54;20.88;;;5.60;;
9522;SDS011;63165;43.016;25.784;2023-07-13T17:15:22;14.82;;;5.68;;
9522;SDS011;63165;43.016;25.784;2023-07-13T17:17:51;16.25;;;5.65;;
9522;SDS011;63165;43.016;25.784;2023-07-13T17:20:31;20.20;;;6.15;;
9522;SDS011;63165;43.016;25.784;2023-07-13T17:23:02;15.32;;;6.35;;
9522;SDS011;63165;43.016;25.784;2023-07-13T17:25:30;24.80;;;6.15;;
9522;SDS011;63165;43.016;25.784;2023-07-13T17:27:58;20.98;;;6.22;;
9522;SDS011;63165;43.016;25.784;2023-07-13T17:30:25;14.23;;;6.47;;
9522;SDS011;63165;43.016;25.784;2023-07-13T17:32:52;14.15;;;6.60;;
9522;SDS011;63165;43.016;25.784;2023-07-13T17:35:24;23.05;;;7.65;;
9522;SDS011;63165;43.016;25.784;2023-07-13T17:37:55;14.82;;;6.10;;
9522;SDS011;63165;43.016;25.784;2023-07-13T17:40:23;22.92;;;6.80;;
9522;SDS011;63165;43.016;25.784;2023-07-13T17:42:50;23.50;;;6.40;;
9522;SDS011;63165;43.016;25.784;2023-07-13T17:45:20;20.42;;;6.38;;
9522;SDS011;63165;43.016;25.784;2023-07-13T17:47:52;26.55;;;6.40;;
9522;SDS011;63165;43.016;25.784;2023-07-13T17:50:22;21.80;;;7.00;;
9522;SDS011;63165;43.016;25.784;2023-07-13T17:53:02;39.83;;;6.88;;
9522;SDS011;63165;43.016;25.784;2023-07-13T17:55:31;23.65;;;6.75;;
9522;SDS011;63165;43.016;25.784;2023-07-13T17:58:00;15.40;;;6.60;;
9522;SDS011;63165;43.016;25.784;2023-07-13T18:00:30;22.70;;;7.78;;
9522;SDS011;63165;43.016;25.784;2023-07-13T18:03:05;21.58;;;6.65;;
9522;SDS011;63165;43.016;25.784;2023-07-13T18:05:37;17.47;;;6.27;;
9522;SDS011;63165;43.016;25.784;2023-07-13T18:08:05;25.35;;;7.03;;
9522;SDS011;63165;43.016;25.784;2023-07-13T18:10:45;15.05;;;6.68;;
9522;SDS011;63165;43.016;25.784;2023-07-13T18:13:12;18.60;;;6.10;;
9522;SDS011;63165;43.016;25.784;2023-07-13T18:15:40;16.55;;;6.30;;
9522;SDS011;63165;43.016;25.784;2023-07-13T18:18:08;16.58;;;6.32;;
9522;SDS011;63165;43.016;25.784;2023-07-13T18:20:37;18.10;;;6.38;;
9522;SDS011;63165;43.016;25.784;2023-07-13T18:23:12;13.75;;;6.20;;
9522;SDS011;63165;43.016;25.784;2023-07-13T18:25:42;16.75;;;6.10;;
9522;SDS011;63165;43.016;25.784;2023-07-13T18:28:10;11.60;;;5.93;;
9522;SDS011;63165;43.016;25.784;2023-07-13T18:30:38;19.75;;;7.05;;
9522;SDS011;63165;43.016;25.784;2023-07-13T18:33:07;15.45;;;6.90;;
9522;SDS011;63165;43.016;25.784;2023-07-13T18:35:43;18.00;;;6.60;;
9522;SDS011;63165;43.016;25.784;2023-07-13T18:38:16;19.05;;;7.43;;
9522;SDS011;63165;43.016;25.784;2023-07-13T18:40:45;18.33;;;6.07;;
9522;SDS011;63165;43.016;25.784;2023-07-13T18:43:13;15.32;;;6.43;;
9522;SDS011;63165;43.016;25.784;2023-07-13T18:45:40;16.20;;;6.35;;
9522;SDS011;63165;43.016;25.784;2023-07-13T18:48:10;22.60;;;6.60;;
9522;SDS011;63165;43.016;25.784;2023-07-13T18:50:49;19.50;;;6.00;;
9522;SDS011;63165;43.016;25.784;2023-07-13T18:53:19;13.13;;;6.50;;
9522;SDS011;63165;43.016;25.784;2023-07-13T18:55:46;17.17;;;6.50;;
9522;SDS011;63165;43.016;25.784;2023-07-13T18:58:14;17.50;;;6.13;;
9522;SDS011;63165;43.016;25.784;2023-07-13T19:00:44;20.52;;;6.03;;
9522;SDS011;63165;43.016;25.784;2023-07-13T19:03:14;16.52;;;6.45;;
9522;SDS011;63165;43.016;25.784;2023-07-13T19:05:43;16.25;;;6.68;;
9522;SDS011;63165;43.016;25.784;2023-07-13T19:08:14;14.63;;;6.28;;
9522;SDS011;63165;43.016;25.784;2023-07-13T19:10:45;19.17;;;6.47;;
9522;SDS011;63165;43.016;25.784;2023-07-13T19:13:17;16.13;;;6.60;;
9522;SDS011;63165;43.016;25.784;2023-07-13T19:15:47;14.38;;;6.43;;
9522;SDS011;63165;43.016;25.784;2023-07-13T19:18:15;15.77;;;6.40;;
9522;SDS011;63165;43.016;25.784;2023-07-13T19:20:44;18.85;;;6.72;;
9522;SDS011;63165;43.016;25.784;2023-07-13T19:23:15;23.55;;;6.80;;
9522;SDS011;63165;43.016;25.784;2023-07-13T19:25:51;21.15;;;6.88;;
9522;SDS011;63165;43.016;25.784;2023-07-13T19:28:24;23.38;;;7.80;;
9522;SDS011;63165;43.016;25.784;2023-07-13T19:30:54;22.85;;;6.80;;
9522;SDS011;63165;43.016;25.784;2023-07-13T19:33:21;18.52;;;6.57;;
9522;SDS011;63165;43.016;25.784;2023-07-13T19:35:48;28.48;;;7.60;;
9522;SDS011;63165;43.016;25.784;2023-07-13T19:38:16;14.07;;;6.20;;
9522;SDS011;63165;43.016;25.784;2023-07-13T19:40:47;15.23;;;6.30;;
9522;SDS011;63165;43.016;25.784;2023-07-13T19:43:15;16.63;;;6.60;;
9522;SDS011;63165;43.016;25.784;2023-07-13T19:45:43;21.98;;;6.72;;
9522;SDS011;63165;43.016;25.784;2023-07-13T19:48:10;17.75;;;7.28;;
9522;SDS011;63165;43.016;25.784;2023-07-13T19:50:38;13.80;;;6.50;;
9522;SDS011;63165;43.016;25.784;2023-07-13T19:53:09;19.35;;;6.97;;
9522;SDS011;63165;43.016;25.784;2023-07-13T19:55:45;13.48;;;6.53;;
9522;SDS011;63165;43.016;25.784;2023-07-13T19:58:13;23.20;;;6.75;;
9522;SDS011;63165;43.016;25.784;2023-07-13T20:00:41;13.85;;;6.60;;
9522;SDS011;63165;43.016;25.784;2023-07-13T20:03:09;17.95;;;6.95;;
9522;SDS011;63165;43.016;25.784;2023-07-13T20:05:36;22.20;;;6.85;;
9522;SDS011;63165;43.016;25.784;2023-07-13T20:08:05;18.02;;;7.15;;
9522;SDS011;63165;43.016;25.784;2023-07-13T20:10:47;13.17;;;6.73;;
9522;SDS011;63165;43.016;25.784;2023-07-13T20:13:16;15.80;;;7.25;;
9522;SDS011;63165;43.016;25.784;2023-07-13T20:15:47;19.52;;;7.00;;
9522;SDS011;63165;43.016;25.784;2023-07-13T20:18:15;16.23;;;6.82;;
9522;SDS011;63165;43.016;25.784;2023-07-13T20:20:44;18.17;;;6.90;;
9522;SDS011;63165;43.016;25.784;2023-07-13T20:23:14;15.95;;;6.50;;
9522;SDS011;63165;43.016;25.784;2023-07-13T20:25:43;19.98;;;6.78;;
9522;SDS011;63165;43.016;25.784;2023-07-13T20:28:13;17.38;;;7.45;;
9522;SDS011;63165;43.016;25.784;2023-07-13T20:30:41;15.63;;;6.78;;
9522;SDS011;63165;43.016;25.784;2023-07-13T20:33:14;19.02;;;7.38;;
9522;SDS011;63165;43.016;25.784;2023-07-13T20:35:44;18.55;;;7.28;;
9522;SDS011;63165;43.016;25.784;2023-07-13T20:38:12;16.45;;;7.20;;
9522;SDS011;63165;43.016;25.784;2023-07-13T20:40:41;17.23;;;7.10;;
9522;SDS011;63165;43.016;25.784;2023-07-13T20:43:09;18.40;;;7.10;;
9522;SDS011;63165;43.016;25.784;2023-07-13T20:45:38;16.10;;;6.60;;
9522;SDS011;63165;43.016;25.784;2023-07-13T20:48:27;18.52;;;7.18;;
9522;SDS011;63165;43.016;25.784;2023-07-13T20:51:00;20.30;;;7.25;;
9522;SDS011;63165;43.016;25.784;2023-07-13T20:53:28;14.95;;;7.20;;
9522;SDS011;63165;43.016;25.784;2023-07-13T20:55:55;15.85;;;6.95;;
9522;SDS011;63165;43.016;25.784;2023-07-13T20:58:23;17.23;;;7.28;;
9522;SDS011;63165;43.016;25.784;2023-07-13T21:00:51;18.00;;;7.50;;
9522;SDS011;63165;43.016;25.784;2023-07-13T21:03:20;16.20;;;7.35;;
9522;SDS011;63165;43.016;25.784;2023-07-13T21:05:52;21.63;;;7.93;;
9522;SDS011;63165;43.016;25.784;2023-07-13T21:08:20;18.65;;;7.07;;
9522;SDS011;63165;43.016;25.784;2023-07-13T21:10:49;17.30;;;7.97;;
9522;SDS011;63165;43.016;25.784;2023-07-13T21:13:17;17.75;;;7.45;;
9522;SDS011;63165;43.016;25.784;2023-07-13T21:15:46;14.57;;;6.97;;
9522;SDS011;63165;43.016;25.784;2023-07-13T21:18:15;16.65;;;7.43;;
9522;SDS011;63165;43.016;25.784;2023-07-13T21:20:45;16.42;;;7.80;;
9522;SDS011;63165;43.016;25.784;2023-07-13T21:23:24;20.88;;;7.95;;
9522;SDS011;63165;43.016;25.784;2023-07-13T21:25:54;16.65;;;6.97;;
9522;SDS011;63165;43.016;25.784;2023-07-13T21:28:22;18.60;;;7.80;;
9522;SDS011;63165;43.016;25.784;2023-07-13T21:30:50;22.02;;;8.00;;
9522;SDS011;63165;43.016;25.784;2023-07-13T21:33:19;20.50;;;7.88;;
9522;SDS011;63165;43.016;25.784;2023-07-13T21:35:47;19.17;;;8.07;;
9522;SDS011;63165;43.016;25.784;2023-07-13T21:38:17;20.15;;;8.18;;
9522;SDS011;63165;43.016;25.784;2023-07-13T21:40:49;16.73;;;7.82;;
9522;SDS011;63165;43.016;25.784;2023-07-13T21:43:18;19.58;;;7.60;;
9522;SDS011;63165;43.016;25.784;2023-07-13T21:45:45;17.98;;;7.38;;
9522;SDS011;63165;43.016;25.784;2023-07-13T21:48:13;22.13;;;7.75;;
9522;SDS011;63165;43.016;25.784;2023-07-13T21:50:41;19.98;;;7.47;;
9522;SDS011;63165;43.016;25.784;2023-07-13T21:53:14;19.80;;;8.45;;
9522;SDS011;63165;43.016;25.784;2023-07-13T21:55:44;19.55;;;7.57;;
9522;SDS011;63165;43.016;25.784;2023-07-13T21:58:14;18.35;;;8.32;;
9522;SDS011;63165;43.016;25.784;2023-07-13T22:00:43;19.70;;;8.57;;
9522;SDS011;63165;43.016;25.784;2023-07-13T22:03:16;21.35;;;8.48;;
9522;SDS011;63165;43.016;25.784;2023-07-13T22:05:46;22.02;;;8.38;;
9522;SDS011;63165;43.016;25.784;2023-07-13T22:08:13;19.67;;;7.82;;
9522;SDS011;63165;43.016;25.784;2023-07-13T22:10:41;19.20;;;7.93;;
9522;SDS011;63165;43.016;25.784;2023-07-13T22:13:09;18.20;;;8.55;;
9522;SDS011;63165;43.016;25.784;2023-07-13T22:15:38;16.23;;;7.47;;
9522;SDS011;63165;43.016;25.784;2023-07-13T22:18:11;18.25;;;8.00;;
9522;SDS011;63165;43.016;25.784;2023-07-13T22:20:41;20.60;;;7.85;;
9522;SDS011;63165;43.016;25.784;2023-07-13T22:23:16;18.05;;;7.13;;
9522;SDS011;63165;43.016;25.784;2023-07-13T22:25:45;17.55;;;7.57;;